Karla A — TCCR8 — position and weather

sailwx.info

Track history (hours):
 
Tides and Currents Weather Stations Pressure Air Temp Water Temp Dewpoint Dewpoint Depression Visibility Wind Speed Wind Dir Waves Ship Positions

Karla A

Last reported at 2016-Jun-29 10:32 UTC. Time now 2016-Jun-30 05:06 UTC.
Position N 37°11' E 023°50'.

Length 155 m; draft 8.8 m.

Type: Ship (hazmat cat A). MMSI: 271000744.

Date/timePositionNaut miles runAvg speedWind from/ knotsBaromVisibWave heightAir tempDewpointWater temp
2016-Jun-29 10:32N 37°11' E 023°50'1212.5
2016-Jun-29 09:32N 37°22' E 023°57'1312.5
2016-Jun-29 08:32N 37°33' E 024°05'1312.9
2016-Jun-29 07:29N 37°44' E 024°15'1212.8
2016-Jun-29 06:33N 37°51' E 024°27'5312.6
2016-Jun-29 02:21N 38°37' E 025°00'7812.5
2016-Jun-28 20:07N 39°47' E 025°44'712.3
2016-Jun-28 19:31N 39°54' E 025°49'  
2016-Jun-26 10:20N 43°32' E 028°51'  
2016-Jun-20 06:33N 40°59' E 028°60'  
Track history (hours):
 
Tides and Currents Weather Stations Pressure Air Temp Water Temp Dewpoint Dewpoint Depression Visibility Wind Speed Wind Dir Waves Ship Positions

Karla A

Last reported at 2016-Jun-29 10:32 UTC. Time now 2016-Jun-30 05:06 UTC.
Position N 37°11' E 023°50'.

Length 155 m; draft 8.8 m.

Type: Ship (hazmat cat A). MMSI: 271000744.

Date/timePositionNaut miles runAvg speedWind from/ knotsBaromVisibWave heightAir tempDewpointWater temp
2016-Jun-29 10:32N 37°11' E 023°50'1212.5
2016-Jun-29 09:32N 37°22' E 023°57'1312.5
2016-Jun-29 08:32N 37°33' E 024°05'1312.9
2016-Jun-29 07:29N 37°44' E 024°15'1212.8
2016-Jun-29 06:33N 37°51' E 024°27'5312.6
2016-Jun-29 02:21N 38°37' E 025°00'7812.5
2016-Jun-28 20:07N 39°47' E 025°44'712.3
2016-Jun-28 19:31N 39°54' E 025°49'  
2016-Jun-26 10:20N 43°32' E 028°51'  
2016-Jun-20 06:33N 40°59' E 028°60'  

Dump ship's entire track history